sensor_id;sensor_type;location;lat;lon;timestamp;pressure;altitude;pressure_sealevel;temperature;humidity
36254;BME280;22291;52.250;21.228;2023-06-26T21:28:57;99674.27;;;20.40;49.69
36254;BME280;22291;52.250;21.228;2023-06-26T21:31:23;99662.25;;;20.21;50.03
36254;BME280;22291;52.250;21.228;2023-06-26T21:33:49;99656.75;;;20.06;50.37
36254;BME280;22291;52.250;21.228;2023-06-26T21:36:16;99663.17;;;19.93;51.06
36254;BME280;22291;52.250;21.228;2023-06-26T21:38:42;99666.66;;;19.80;51.31
36254;BME280;22291;52.250;21.228;2023-06-26T21:41:10;99666.00;;;19.69;51.76
36254;BME280;22291;52.250;21.228;2023-06-26T21:43:36;99662.42;;;19.58;52.35
36254;BME280;22291;52.250;21.228;2023-06-26T21:46:04;99664.34;;;19.47;52.45
36254;BME280;22291;52.250;21.228;2023-06-26T21:48:30;99663.89;;;19.37;53.22
36254;BME280;22291;52.250;21.228;2023-06-26T21:50:56;99667.58;;;19.28;53.66
36254;BME280;22291;52.250;21.228;2023-06-26T21:53:24;99674.39;;;19.21;53.51
36254;BME280;22291;52.250;21.228;2023-06-26T21:55:50;99676.30;;;19.17;53.96
36254;BME280;22291;52.250;21.228;2023-06-26T21:58:17;99671.02;;;19.14;54.16
36254;BME280;22291;52.250;21.228;2023-06-26T22:00:43;99678.03;;;19.12;54.37
36254;BME280;22291;52.250;21.228;2023-06-26T22:03:09;99675.27;;;19.08;54.61
36254;BME280;22291;52.250;21.228;2023-06-26T22:05:37;99678.39;;;19.07;55.11
36254;BME280;22291;52.250;21.228;2023-06-26T22:08:05;99672.11;;;19.02;55.31
36254;BME280;22291;52.250;21.228;2023-06-26T22:10:36;99683.05;;;18.99;55.09
36254;BME280;22291;52.250;21.228;2023-06-26T22:13:02;99679.70;;;18.96;55.49
36254;BME280;22291;52.250;21.228;2023-06-26T22:15:30;99679.08;;;18.93;55.82
36254;BME280;22291;52.250;21.228;2023-06-26T22:17:57;99674.36;;;18.90;56.29
36254;BME280;22291;52.250;21.228;2023-06-26T22:20:26;99676.91;;;18.89;56.26
36254;BME280;22291;52.250;21.228;2023-06-26T22:22:53;99681.19;;;18.86;56.52
36254;BME280;22291;52.250;21.228;2023-06-26T22:25:21;99682.16;;;18.84;56.59
36254;BME280;22291;52.250;21.228;2023-06-26T22:27:52;99677.21;;;18.80;56.42
36254;BME280;22291;52.250;21.228;2023-06-26T22:30:23;99671.30;;;18.78;56.56
36254;BME280;22291;52.250;21.228;2023-06-26T22:32:50;99669.34;;;18.75;56.87
36254;BME280;22291;52.250;21.228;2023-06-26T22:35:22;99664.41;;;18.71;56.59
36254;BME280;22291;52.250;21.228;2023-06-26T22:37:48;99667.34;;;18.68;56.93
36254;BME280;22291;52.250;21.228;2023-06-26T22:40:14;99662.98;;;18.63;57.06
36254;BME280;22291;52.250;21.228;2023-06-26T22:42:42;99666.08;;;18.58;57.34
36254;BME280;22291;52.250;21.228;2023-06-26T22:45:12;99657.83;;;18.55;57.58
36254;BME280;22291;52.250;21.228;2023-06-26T22:47:41;99654.47;;;18.52;57.57
36254;BME280;22291;52.250;21.228;2023-06-26T22:50:10;99648.19;;;18.47;58.01
36254;BME280;22291;52.250;21.228;2023-06-26T22:52:40;99648.56;;;18.46;58.28
36254;BME280;22291;52.250;21.228;2023-06-26T22:55:09;99644.84;;;18.44;58.99
36254;BME280;22291;52.250;21.228;2023-06-26T22:57:38;99641.85;;;18.40;58.47
36254;BME280;22291;52.250;21.228;2023-06-26T23:00:08;99634.98;;;18.36;58.55
36254;BME280;22291;52.250;21.228;2023-06-26T23:02:37;99634.77;;;18.35;58.89
36254;BME280;22291;52.250;21.228;2023-06-26T23:05:09;99637.31;;;18.34;59.01
36254;BME280;22291;52.250;21.228;2023-06-26T23:07:37;99636.72;;;18.35;59.38
36254;BME280;22291;52.250;21.228;2023-06-26T23:10:09;99626.92;;;18.34;59.59
36254;BME280;22291;52.250;21.228;2023-06-26T23:12:36;99628.11;;;18.33;59.54
36254;BME280;22291;52.250;21.228;2023-06-26T23:15:06;99624.00;;;18.33;59.57
36254;BME280;22291;52.250;21.228;2023-06-26T23:17:33;99626.92;;;18.34;59.63
36254;BME280;22291;52.250;21.228;2023-06-26T23:20:01;99617.94;;;18.33;59.83
36254;BME280;22291;52.250;21.228;2023-06-26T23:22:31;99607.95;;;18.31;59.66
36254;BME280;22291;52.250;21.228;2023-06-26T23:24:59;99599.34;;;18.29;59.85
36254;BME280;22291;52.250;21.228;2023-06-26T23:27:29;99597.59;;;18.31;59.85
36254;BME280;22291;52.250;21.228;2023-06-26T23:29:57;99596.41;;;18.32;59.91
36254;BME280;22291;52.250;21.228;2023-06-26T23:32:24;99590.75;;;18.31;60.40
36254;BME280;22291;52.250;21.228;2023-06-26T23:34:52;99589.37;;;18.31;60.65
36254;BME280;22291;52.250;21.228;2023-06-26T23:37:20;99575.08;;;18.27;60.88
36254;BME280;22291;52.250;21.228;2023-06-26T23:39:54;99576.45;;;18.27;60.73
36254;BME280;22291;52.250;21.228;2023-06-26T23:42:20;99573.48;;;18.26;61.07
36254;BME280;22291;52.250;21.228;2023-06-26T23:44:47;99574.08;;;18.26;61.33
36254;BME280;22291;52.250;21.228;2023-06-26T23:47:15;99572.50;;;18.25;61.23
36254;BME280;22291;52.250;21.228;2023-06-26T23:49:46;99572.50;;;18.25;61.71
36254;BME280;22291;52.250;21.228;2023-06-26T23:52:12;99560.77;;;18.24;61.36
36254;BME280;22291;52.250;21.228;2023-06-26T23:54:38;99562.73;;;18.24;61.48
36254;BME280;22291;52.250;21.228;2023-06-26T23:57:06;99556.88;;;18.25;62.07
36254;BME280;22291;52.250;21.228;2023-06-26T23:59:35;99557.06;;;18.26;61.85
